createdAt,value
2022-10-30T00:02:24.095Z,101580.66
2022-10-30T00:04:50.802Z,101578.94
2022-10-30T00:07:17.435Z,101575.41
2022-10-30T00:09:44.124Z,101564.75
2022-10-30T00:12:10.784Z,101564.97
2022-10-30T00:14:37.514Z,101561.53
2022-10-30T00:17:04.183Z,101566.09
2022-10-30T00:19:30.954Z,101564.38
2022-10-30T00:24:28.845Z,101560.19
2022-10-30T00:26:55.777Z,101553.25
2022-10-30T00:29:26.509Z,101558.63
2022-10-30T00:31:53.694Z,101560.44
2022-10-30T00:34:20.739Z,101554.56
2022-10-30T00:36:47.385Z,101547.31
2022-10-30T00:39:14.128Z,101540.31
2022-10-30T00:41:41.826Z,101550.22
2022-10-30T00:44:38.525Z,101539.56
2022-10-30T00:47:15.783Z,101537.97
2022-10-30T00:49:54.507Z,101531.78
2022-10-30T00:52:23.288Z,101521.97
2022-10-30T00:54:51.079Z,101525.47
2022-10-30T00:57:18.681Z,101521.97
2022-10-30T00:59:46.075Z,101521.19
2022-10-30T01:02:12.841Z,101514.03
2022-10-30T01:04:40.882Z,101522.16
2022-10-30T01:07:11.911Z,101519.63
2022-10-30T01:09:40.042Z,101523.97
2022-10-30T01:12:07.015Z,101526.72
2022-10-30T01:14:36.678Z,101531.22
2022-10-30T01:17:25.683Z,101532.22
2022-10-30T01:20:04.042Z,101527.97
2022-10-30T01:22:37.074Z,101521.81
2022-10-30T01:25:22.601Z,101535.31
2022-10-30T01:28:06.773Z,101534.59
2022-10-30T01:30:41.276Z,101525.72
2022-10-30T01:33:37.460Z,101520.41
2022-10-30T01:36:10.646Z,101521.41
2022-10-30T01:38:43.038Z,101518.81
2022-10-30T01:41:09.737Z,101513.47
2022-10-30T01:43:37.404Z,101511.84
2022-10-30T01:46:25.115Z,101510.00
2022-10-30T01:49:13.330Z,101501.22
2022-10-30T01:52:04.214Z,101496.09
2022-10-30T01:54:52.802Z,101503.31
2022-10-30T01:57:25.992Z,101512.34
2022-10-30T02:00:04.184Z,101502.56
2022-10-30T02:02:39.805Z,101502.56
2022-10-30T02:05:09.512Z,101506.22
2022-10-30T02:07:36.710Z,101505.41
2022-10-30T02:10:05.998Z,101502.81
2022-10-30T02:12:32.770Z,101502.91
2022-10-30T02:15:00.997Z,101503.94
2022-10-30T02:17:28.162Z,101514.66
2022-10-30T02:19:54.855Z,101504.13
2022-10-30T02:22:24.998Z,101506.59
2022-10-30T02:24:52.168Z,101496.81
2022-10-30T02:27:21.517Z,101496.94
2022-10-30T02:29:49.413Z,101499.63
2022-10-30T02:32:16.183Z,101488.22
2022-10-30T02:34:44.210Z,101487.34
2022-10-30T02:37:11.000Z,101489.13
2022-10-30T02:39:39.020Z,101483.03
2022-10-30T02:42:05.953Z,101488.41
2022-10-30T02:44:32.637Z,101489.41
2022-10-30T02:46:59.703Z,101484.13
2022-10-30T02:49:27.035Z,101484.19
2022-10-30T02:51:54.077Z,101483.31
2022-10-30T02:54:20.787Z,101472.69
2022-10-30T02:56:48.581Z,101481.47
2022-10-30T02:59:15.258Z,101479.69
2022-10-30T03:01:42.112Z,101491.28
2022-10-30T03:04:08.947Z,101487.94
2022-10-30T03:06:37.894Z,101490.56
2022-10-30T03:09:04.645Z,101503.06
2022-10-30T03:11:31.371Z,101501.38
2022-10-30T03:13:58.092Z,101513.75
2022-10-30T03:16:26.520Z,101511.94
2022-10-30T03:18:54.390Z,101502.16
2022-10-30T03:21:23.231Z,101510.16
2022-10-30T03:23:50.780Z,101512.03
2022-10-30T03:26:18.638Z,101506.56
2022-10-30T03:28:50.100Z,101511.06
2022-10-30T03:31:18.281Z,101486.97
2022-10-30T03:33:46.405Z,101479.75
2022-10-30T03:36:14.662Z,101477.06
2022-10-30T03:38:41.957Z,101475.38
2022-10-30T03:41:10.338Z,101464.69
2022-10-30T03:43:37.279Z,101456.66
2022-10-30T03:46:04.092Z,101454.88
2022-10-30T03:48:31.735Z,101453.25
2022-10-30T03:50:59.954Z,101441.56
2022-10-30T03:53:28.727Z,101430.78
2022-10-30T03:56:03.283Z,101410.13
2022-10-30T03:58:38.074Z,101399.41
2022-10-30T04:01:08.415Z,101427.03
2022-10-30T04:03:38.656Z,101452.06
2022-10-30T04:06:07.932Z,101462.59
2022-10-30T04:08:34.835Z,101449.19
2022-10-30T04:11:02.873Z,101438.41
2022-10-30T04:13:29.773Z,101433.94
2022-10-30T04:15:58.315Z,101435.84
2022-10-30T04:18:26.195Z,101452.00
2022-10-30T04:20:53.587Z,101458.06
2022-10-30T04:23:21.382Z,101450.84
2022-10-30T04:25:48.551Z,101465.06
2022-10-30T04:28:15.337Z,101466.03
2022-10-30T04:30:42.617Z,101466.03
2022-10-30T04:33:13.471Z,101483.03
2022-10-30T04:35:41.592Z,101482.84
2022-10-30T04:38:19.755Z,101484.47
2022-10-30T04:40:47.732Z,101480.91
2022-10-30T04:43:15.573Z,101464.88
2022-10-30T04:45:45.731Z,101473.13
2022-10-30T04:48:15.515Z,101472.22
2022-10-30T04:50:43.935Z,101471.09
2022-10-30T04:53:16.433Z,101460.38
2022-10-30T04:55:44.561Z,101486.28
2022-10-30T04:58:13.163Z,101485.56
2022-10-30T05:00:42.340Z,101464.06
2022-10-30T05:03:22.333Z,101467.56
2022-10-30T05:05:56.964Z,101472.88
2022-10-30T05:08:23.802Z,101480.69
2022-10-30T05:10:50.576Z,101481.72
2022-10-30T05:13:17.320Z,101469.19
2022-10-30T05:15:44.147Z,101471.88
2022-10-30T05:18:10.894Z,101478.91
2022-10-30T05:20:37.981Z,101480.72
2022-10-30T05:23:04.934Z,101468.13
2022-10-30T05:25:32.334Z,101445.03
2022-10-30T05:28:02.479Z,101436.84
2022-10-30T05:30:32.949Z,101440.38
2022-10-30T05:33:08.078Z,101435.91
2022-10-30T05:35:35.595Z,101400.94
2022-10-30T05:38:06.776Z,101444.59
2022-10-30T05:40:34.539Z,101466.31
2022-10-30T05:43:01.638Z,101478.66
2022-10-30T05:45:29.139Z,101487.38
2022-10-30T05:48:00.609Z,101484.13
2022-10-30T05:50:32.039Z,101460.78
2022-10-30T05:53:17.816Z,101445.59
2022-10-30T05:55:44.587Z,101437.50
2022-10-30T05:58:19.491Z,101443.47
2022-10-30T06:00:46.843Z,101438.53
2022-10-30T06:03:19.310Z,101451.31
2022-10-30T06:05:46.907Z,101442.03
2022-10-30T06:08:16.461Z,101445.28
2022-10-30T06:10:44.664Z,101443.47
2022-10-30T06:13:14.644Z,101448.66
2022-10-30T06:15:57.534Z,101455.78
2022-10-30T06:18:28.503Z,101444.13
2022-10-30T06:20:59.919Z,101443.03
2022-10-30T06:23:45.168Z,101441.47
2022-10-30T06:26:38.021Z,101436.38
2022-10-30T06:29:09.287Z,101439.66
2022-10-30T06:31:36.028Z,101444.03
2022-10-30T06:34:03.535Z,101437.72
2022-10-30T06:36:32.376Z,101433.22
2022-10-30T06:38:59.541Z,101436.16
2022-10-30T06:41:33.951Z,101424.63
2022-10-30T06:44:20.815Z,101429.19
2022-10-30T06:46:47.616Z,101450.47
2022-10-30T06:49:14.325Z,101442.41
2022-10-30T06:51:41.245Z,101451.22
2022-10-30T06:54:08.016Z,101447.50
2022-10-30T06:56:40.640Z,101448.53
2022-10-30T06:59:25.980Z,101450.03
2022-10-30T07:02:25.258Z,101449.78
2022-10-30T07:04:56.053Z,101455.41
2022-10-30T07:07:22.788Z,101446.44
2022-10-30T07:09:49.971Z,101441.72
2022-10-30T07:12:20.496Z,101438.97
2022-10-30T07:15:06.126Z,101448.16
2022-10-30T07:17:39.098Z,101464.88
2022-10-30T07:20:11.760Z,101475.56
2022-10-30T07:22:39.275Z,101467.19
2022-10-30T07:25:07.676Z,101472.19
2022-10-30T07:27:45.497Z,101464.38
2022-10-30T07:30:47.701Z,101475.25
2022-10-30T07:33:43.605Z,101485.00
2022-10-30T07:36:36.777Z,101484.16
2022-10-30T07:39:13.463Z,101469.59
2022-10-30T07:41:58.766Z,101484.38
2022-10-30T07:44:43.738Z,101472.69
2022-10-30T07:47:29.262Z,101465.03
2022-10-30T07:50:02.528Z,101465.84
2022-10-30T07:52:35.808Z,101477.41
2022-10-30T07:55:02.812Z,101467.47
2022-10-30T07:57:52.300Z,101467.59
2022-10-30T08:00:37.401Z,101476.13
2022-10-30T08:03:19.951Z,101486.41
2022-10-30T08:08:41.996Z,101494.16
2022-10-30T08:11:31.378Z,101497.22
2022-10-30T08:13:59.465Z,101493.25
2022-10-30T08:16:26.140Z,101495.47
2022-10-30T08:18:53.077Z,101498.59
2022-10-30T08:21:23.483Z,101493.28
2022-10-30T08:23:56.902Z,101493.88
2022-10-30T08:26:26.745Z,101487.03
2022-10-30T08:28:53.458Z,101481.25
2022-10-30T08:31:20.604Z,101489.28
2022-10-30T08:34:02.163Z,101487.09
2022-10-30T08:36:35.239Z,101491.72
2022-10-30T08:39:04.171Z,101479.81
2022-10-30T08:42:00.333Z,101477.53
2022-10-30T08:44:32.526Z,101479.63
2022-10-30T08:47:25.347Z,101487.06
2022-10-30T08:49:52.974Z,101489.13
2022-10-30T08:52:22.609Z,101488.06
2022-10-30T08:54:55.537Z,101490.84
2022-10-30T08:57:24.361Z,101494.75
2022-10-30T08:59:52.144Z,101488.25
2022-10-30T09:02:39.700Z,101491.09
2022-10-30T09:05:38.504Z,101484.72
2022-10-30T09:08:31.173Z,101477.47
2022-10-30T09:11:04.028Z,101482.31
2022-10-30T09:13:30.931Z,101479.16
2022-10-30T09:16:02.367Z,101470.16
2022-10-30T09:18:31.624Z,101469.69
2022-10-30T09:21:01.574Z,101467.44
2022-10-30T09:23:33.449Z,101459.63
2022-10-30T09:26:38.441Z,101461.69
2022-10-30T09:29:12.745Z,101452.44
2022-10-30T09:31:45.519Z,101443.38
2022-10-30T09:34:16.827Z,101449.84
2022-10-30T09:37:12.803Z,101450.75
2022-10-30T09:39:39.544Z,101456.41
2022-10-30T09:42:19.511Z,101472.78
2022-10-30T09:48:47.350Z,101474.16
2022-10-30T09:51:49.414Z,101486.09
2022-10-30T09:54:38.564Z,101474.63
2022-10-30T09:57:19.869Z,101483.00
2022-10-30T10:00:23.239Z,101473.19
2022-10-30T10:03:06.930Z,101485.63
2022-10-30T10:05:56.466Z,101477.44
2022-10-30T10:08:42.857Z,101471.69
2022-10-30T10:11:35.852Z,101465.25
2022-10-30T10:14:09.634Z,101469.13
2022-10-30T10:16:38.959Z,101473.06
2022-10-30T10:19:27.471Z,101471.81
2022-10-30T10:22:00.943Z,101473.31
2022-10-30T10:24:31.284Z,101477.91
2022-10-30T10:27:11.175Z,101475.28
2022-10-30T10:29:50.655Z,101477.59
2022-10-30T10:32:51.163Z,101461.84
2022-10-30T10:35:48.720Z,101474.44
2022-10-30T10:38:27.433Z,101471.34
2022-10-30T10:41:00.704Z,101465.59
2022-10-30T10:43:51.631Z,101463.16
2022-10-30T10:46:44.640Z,101460.78
2022-10-30T10:49:46.737Z,101447.56
2022-10-30T10:52:17.966Z,101450.06
2022-10-30T10:54:54.058Z,101441.63
2022-10-30T10:57:28.167Z,101441.88
2022-10-30T11:00:03.054Z,101440.66
2022-10-30T11:02:41.578Z,101436.13
2022-10-30T11:05:16.720Z,101437.25
2022-10-30T11:07:48.775Z,101448.41
2022-10-30T11:10:17.769Z,101441.13
2022-10-30T11:12:44.530Z,101443.09
2022-10-30T11:15:33.393Z,101443.44
2022-10-30T11:18:03.421Z,101452.16
2022-10-30T11:20:36.630Z,101452.97
2022-10-30T11:23:03.371Z,101456.28
2022-10-30T11:25:35.097Z,101452.59
2022-10-30T11:28:04.783Z,101450.47
2022-10-30T11:30:31.587Z,101450.53
2022-10-30T11:32:59.265Z,101446.53
2022-10-30T11:35:26.447Z,101446.41
2022-10-30T11:38:15.968Z,101438.84
2022-10-30T11:40:47.823Z,101440.44
2022-10-30T11:43:16.596Z,101439.16
2022-10-30T11:45:43.591Z,101441.28
2022-10-30T11:48:15.261Z,101435.75
2022-10-30T11:50:47.082Z,101446.59
2022-10-30T11:53:21.692Z,101438.47
2022-10-30T11:55:49.776Z,101445.84
2022-10-30T11:58:30.015Z,101435.44
2022-10-30T12:01:21.466Z,101440.56
2022-10-30T12:03:48.294Z,101441.66
2022-10-30T12:06:26.204Z,101441.44
2022-10-30T12:09:15.996Z,101445.78
2022-10-30T12:11:46.079Z,101447.72
2022-10-30T12:14:23.058Z,101444.91
2022-10-30T12:16:55.480Z,101448.91
2022-10-30T12:19:24.093Z,101450.97
2022-10-30T12:21:53.953Z,101446.72
2022-10-30T12:24:31.397Z,101446.03
2022-10-30T12:27:02.008Z,101442.91
2022-10-30T12:30:07.485Z,101445.91
2022-10-30T12:32:39.807Z,101446.81
2022-10-30T12:35:17.441Z,101433.88
2022-10-30T12:37:44.387Z,101432.78
2022-10-30T12:40:21.076Z,101429.09
2022-10-30T12:43:05.390Z,101430.38
2022-10-30T12:45:40.059Z,101428.97
2022-10-30T12:48:23.558Z,101430.81
2022-10-30T12:51:08.936Z,101425.19
2022-10-30T12:53:41.123Z,101432.78
2022-10-30T12:56:19.568Z,101431.28
2022-10-30T12:58:50.913Z,101432.25
2022-10-30T13:01:35.946Z,101427.06
2022-10-30T13:04:19.014Z,101420.75
2022-10-30T13:06:51.317Z,101427.34
2022-10-30T13:09:36.107Z,101423.34
2022-10-30T13:12:25.385Z,101416.06
2022-10-30T13:14:58.597Z,101420.31
2022-10-30T13:17:25.335Z,101413.78
2022-10-30T13:19:52.071Z,101410.97
2022-10-30T13:22:20.792Z,101417.16
2022-10-30T13:25:15.004Z,101417.16
2022-10-30T13:27:52.490Z,101416.41
2022-10-30T13:30:23.831Z,101411.41
2022-10-30T13:33:08.916Z,101411.59
2022-10-30T13:35:36.670Z,101409.88
2022-10-30T13:38:17.360Z,101416.41
2022-10-30T13:40:51.250Z,101411.84
2022-10-30T13:43:21.999Z,101411.06
2022-10-30T13:46:11.970Z,101410.09
2022-10-30T13:49:17.139Z,101415.63
2022-10-30T13:51:56.370Z,101404.22
2022-10-30T13:54:30.860Z,101412.25
2022-10-30T13:57:02.260Z,101412.34
2022-10-30T13:59:45.286Z,101406.94
2022-10-30T14:02:22.778Z,101405.31
2022-10-30T14:04:58.182Z,101403.03
2022-10-30T14:07:36.054Z,101401.38
2022-10-30T14:10:08.847Z,101410.78
2022-10-30T14:12:44.193Z,101416.44
2022-10-30T14:15:20.071Z,101417.19
2022-10-30T14:18:14.529Z,101412.63
2022-10-30T14:20:51.610Z,101416.34
2022-10-30T14:23:23.809Z,101419.03
2022-10-30T14:26:03.138Z,101419.13
2022-10-30T14:28:49.195Z,101415.75
2022-10-30T14:31:18.333Z,101411.53
2022-10-30T14:33:49.136Z,101417.16
2022-10-30T14:36:25.914Z,101418.22
2022-10-30T14:39:21.631Z,101420.25
2022-10-30T14:42:14.484Z,101419.59
2022-10-30T14:45:29.204Z,101429.00
2022-10-30T14:48:14.736Z,101428.63
2022-10-30T14:50:59.803Z,101430.66
2022-10-30T14:53:57.470Z,101440.06
2022-10-30T14:56:55.113Z,101438.63
2022-10-30T14:59:24.728Z,101431.88
2022-10-30T15:01:56.812Z,101435.84
2022-10-30T15:04:57.697Z,101431.69
2022-10-30T15:07:25.575Z,101432.19
2022-10-30T15:10:03.970Z,101428.13
2022-10-30T15:12:47.112Z,101422.16
2022-10-30T15:15:15.824Z,101421.75
2022-10-30T15:17:45.966Z,101417.59
2022-10-30T15:20:18.934Z,101420.66
2022-10-30T15:22:51.830Z,101422.88
2022-10-30T15:25:20.566Z,101432.34
2022-10-30T15:27:50.903Z,101431.75
2022-10-30T15:30:24.548Z,101434.84
2022-10-30T15:32:51.867Z,101432.53
2022-10-30T15:35:24.190Z,101433.75
2022-10-30T15:38:08.174Z,101432.41
2022-10-30T15:40:35.873Z,101432.88
2022-10-30T15:43:03.946Z,101432.47
2022-10-30T15:45:45.324Z,101430.22
2022-10-30T15:48:23.370Z,101437.03
2022-10-30T15:51:04.681Z,101436.44
2022-10-30T15:53:36.741Z,101433.31
2022-10-30T15:56:03.797Z,101437.22
2022-10-30T15:58:31.989Z,101435.69
2022-10-30T16:01:00.350Z,101442.38
2022-10-30T16:03:27.617Z,101439.25
2022-10-30T16:06:17.177Z,101433.44
2022-10-30T16:08:45.944Z,101432.81
2022-10-30T16:11:12.967Z,101428.63
2022-10-30T16:13:39.669Z,101433.34
2022-10-30T16:16:07.631Z,101431.94
2022-10-30T16:18:36.054Z,101424.13
2022-10-30T16:21:06.267Z,101428.91
2022-10-30T16:23:47.713Z,101426.47
2022-10-30T16:26:30.252Z,101429.44
2022-10-30T16:28:57.816Z,101427.22
2022-10-30T16:31:24.952Z,101427.53
2022-10-30T16:33:51.717Z,101432.38
2022-10-30T16:36:18.611Z,101435.41
2022-10-30T16:38:47.396Z,101433.97
2022-10-30T16:41:14.490Z,101427.84
2022-10-30T16:43:44.784Z,101426.50
2022-10-30T16:46:14.423Z,101440.25
2022-10-30T16:48:55.047Z,101444.06
2022-10-30T16:51:21.851Z,101436.31
2022-10-30T16:53:49.215Z,101434.72
2022-10-30T16:56:27.835Z,101438.59
2022-10-30T16:58:57.558Z,101439.78
2022-10-30T17:01:26.521Z,101440.91
2022-10-30T17:03:54.010Z,101444.78
2022-10-30T17:06:39.900Z,101447.75
2022-10-30T17:09:26.481Z,101448.84
2022-10-30T17:12:15.925Z,101450.97
2022-10-30T17:14:51.995Z,101458.44
2022-10-30T17:17:23.140Z,101460.38
2022-10-30T17:19:55.844Z,101462.28
2022-10-30T17:22:22.649Z,101460.75
2022-10-30T17:24:49.365Z,101465.34
2022-10-30T17:27:32.069Z,101464.63
2022-10-30T17:29:58.810Z,101461.31
2022-10-30T17:32:41.886Z,101466.81
2022-10-30T17:35:19.548Z,101464.44
2022-10-30T17:37:46.674Z,101468.22
2022-10-30T17:40:14.036Z,101468.41
2022-10-30T17:42:41.194Z,101471.31
2022-10-30T17:45:10.839Z,101471.53
2022-10-30T17:47:38.081Z,101467.25
2022-10-30T17:50:05.720Z,101467.38
2022-10-30T17:52:33.215Z,101464.84
2022-10-30T17:55:01.559Z,101472.13
2022-10-30T17:57:28.974Z,101470.53
2022-10-30T17:59:55.736Z,101468.94
2022-10-30T18:02:23.364Z,101470.09
2022-10-30T18:04:50.627Z,101471.03
2022-10-30T18:07:17.698Z,101473.88
2022-10-30T18:09:44.692Z,101474.06
2022-10-30T18:12:15.560Z,101475.09
2022-10-30T18:14:43.333Z,101475.28
2022-10-30T18:17:10.747Z,101475.41
2022-10-30T18:19:37.442Z,101472.94
2022-10-30T18:22:04.087Z,101473.22
2022-10-30T18:24:30.796Z,101474.19
2022-10-30T18:26:58.641Z,101472.72
2022-10-30T18:29:25.377Z,101477.38
2022-10-30T18:31:52.067Z,101484.63
2022-10-30T18:34:21.717Z,101478.47
2022-10-30T18:36:48.877Z,101480.34
2022-10-30T18:39:15.617Z,101482.28
2022-10-30T18:41:46.508Z,101480.63
2022-10-30T18:44:14.921Z,101477.25
2022-10-30T18:46:43.942Z,101469.25
2022-10-30T18:49:10.980Z,101473.97
2022-10-30T18:51:37.947Z,101475.00
2022-10-30T18:54:11.939Z,101469.69
2022-10-30T18:56:38.623Z,101470.75
2022-10-30T18:59:05.461Z,101475.41
2022-10-30T19:01:32.648Z,101469.22
2022-10-30T19:04:04.013Z,101473.78
2022-10-30T19:06:32.975Z,101468.53
2022-10-30T19:08:59.727Z,101469.53
2022-10-30T19:11:28.277Z,101469.66
2022-10-30T19:13:57.056Z,101469.75
2022-10-30T19:16:26.575Z,101472.56
2022-10-30T19:18:53.540Z,101471.00
2022-10-30T19:21:22.637Z,101468.47
2022-10-30T19:23:49.643Z,101470.41
2022-10-30T19:26:17.585Z,101467.78
2022-10-30T19:28:45.402Z,101466.06
2022-10-30T19:31:17.228Z,101463.50
2022-10-30T19:33:44.515Z,101469.00
2022-10-30T19:36:43.730Z,101469.13
2022-10-30T19:39:12.825Z,101456.78
2022-10-30T19:41:40.241Z,101460.59
2022-10-30T19:44:06.990Z,101462.41
2022-10-30T19:46:33.995Z,101455.34
2022-10-30T19:49:00.815Z,101457.28
2022-10-30T19:51:28.275Z,101462.81
2022-10-30T19:53:54.989Z,101462.94
2022-10-30T19:56:22.137Z,101458.59
2022-10-30T19:58:49.183Z,101463.97
2022-10-30T20:01:16.347Z,101460.53
2022-10-30T20:03:43.221Z,101465.94
2022-10-30T20:06:13.588Z,101470.50
2022-10-30T20:08:40.406Z,101464.44
2022-10-30T20:11:07.278Z,101474.31
2022-10-30T20:13:34.136Z,101462.91
2022-10-30T20:16:02.747Z,101461.38
2022-10-30T20:18:31.701Z,101468.63
2022-10-30T20:21:00.617Z,101469.50
2022-10-30T20:23:28.051Z,101469.69
2022-10-30T20:25:58.502Z,101471.50
2022-10-30T20:28:37.359Z,101476.94
2022-10-30T20:31:05.108Z,101475.31
2022-10-30T20:33:31.922Z,101471.97
2022-10-30T20:35:58.779Z,101481.72
2022-10-30T20:38:30.662Z,101479.22
2022-10-30T20:40:58.637Z,101492.72
2022-10-30T20:43:28.359Z,101501.72
2022-10-30T20:45:55.038Z,101495.50
2022-10-30T20:48:21.805Z,101492.94
2022-10-30T20:50:50.844Z,101490.31
2022-10-30T20:53:17.752Z,101489.56
2022-10-30T20:55:45.377Z,101492.47
2022-10-30T20:58:12.157Z,101484.53
2022-10-30T21:00:38.924Z,101491.75
2022-10-30T21:03:06.320Z,101484.63
2022-10-30T21:05:45.392Z,101486.44
2022-10-30T21:08:15.830Z,101480.34
2022-10-30T21:10:42.925Z,101479.66
2022-10-30T21:13:11.292Z,101483.19
2022-10-30T21:15:40.270Z,101483.28
2022-10-30T21:18:07.685Z,101487.75
2022-10-30T21:20:34.353Z,101486.00
2022-10-30T21:23:01.028Z,101487.00
2022-10-30T21:25:28.803Z,101482.66
2022-10-30T21:27:58.899Z,101485.34
2022-10-30T21:30:25.554Z,101484.53
2022-10-30T21:32:52.330Z,101492.66
2022-10-30T21:35:19.383Z,101483.78
2022-10-30T21:37:46.154Z,101483.88
2022-10-30T21:40:13.170Z,101485.69
2022-10-30T21:42:39.864Z,101486.69
2022-10-30T21:45:07.207Z,101490.28
2022-10-30T21:47:33.885Z,101492.22
2022-10-30T21:50:00.542Z,101487.78
2022-10-30T21:52:27.244Z,101493.22
2022-10-30T21:54:53.929Z,101496.84
2022-10-30T21:57:20.644Z,101492.53
2022-10-30T21:59:47.303Z,101503.28
2022-10-30T22:02:15.484Z,101498.03
2022-10-30T22:04:42.345Z,101498.97
2022-10-30T22:07:09.275Z,101493.66
2022-10-30T22:09:35.948Z,101493.75
2022-10-30T22:12:02.648Z,101505.44
2022-10-30T22:14:29.532Z,101499.25
2022-10-30T22:16:56.467Z,101501.16
2022-10-30T22:19:23.182Z,101500.28
2022-10-30T22:21:49.852Z,101496.84
2022-10-30T22:24:17.488Z,101504.00
2022-10-30T22:26:44.321Z,101487.09
2022-10-30T22:29:11.563Z,101496.94
2022-10-30T22:31:38.254Z,101489.88
2022-10-30T22:34:04.987Z,101491.75
2022-10-30T22:36:33.368Z,101492.72
2022-10-30T22:39:00.827Z,101495.41
2022-10-30T22:41:31.403Z,101492.81
2022-10-30T22:44:01.447Z,101486.81
2022-10-30T22:46:30.060Z,101491.19
2022-10-30T22:48:57.657Z,101492.16
2022-10-30T22:51:25.519Z,101491.34
2022-10-30T22:53:57.657Z,101484.22
2022-10-30T22:56:29.898Z,101494.06
2022-10-30T22:58:57.007Z,101492.38
2022-10-30T23:01:28.894Z,101495.97
2022-10-30T23:03:57.684Z,101491.59
2022-10-30T23:06:24.720Z,101492.66
2022-10-30T23:08:56.916Z,101498.09
2022-10-30T23:11:24.302Z,101503.41
2022-10-30T23:13:53.840Z,101502.56
2022-10-30T23:16:22.933Z,101503.53
2022-10-30T23:18:50.561Z,101509.81
2022-10-30T23:21:22.337Z,101510.78
2022-10-30T23:23:49.434Z,101515.34
2022-10-30T23:26:19.410Z,101519.88
2022-10-30T23:28:46.827Z,101515.47
2022-10-30T23:31:27.036Z,101511.94
2022-10-30T23:33:56.761Z,101510.28
2022-10-30T23:36:23.869Z,101507.59
2022-10-30T23:38:54.502Z,101510.28
2022-10-30T23:41:22.239Z,101505.91
2022-10-30T23:43:48.992Z,101509.56
2022-10-30T23:46:15.669Z,101513.16
2022-10-30T23:48:42.320Z,101514.09
2022-10-30T23:51:09.427Z,101508.84
2022-10-30T23:53:36.194Z,101510.59
2022-10-30T23:56:04.219Z,101513.31
2022-10-30T23:58:30.865Z,101523.19
